AirNav   TITAN Aviation Fuels
 
 730 users online  

WS02 Polish Paradise Airport
Oxford, Wisconsin, USA

GOING TO OXFORD?


FAA INFORMATION EFFECTIVE 26 JANUARY 2023

Location

FAA Identifier: WS02
Lat/Long: 43-44-32.9170N 089-42-57.4470W
43-44.548617N 089-42.957450W
43.7424769,-89.7159575
(estimated)
Elevation: 1030 ft. / 314 m (estimated)
Variation: 00E (1985)
From city: 7 miles SW of OXFORD, WI
Time zone: UTC -6 (UTC -5 during Daylight Saving Time)
Zip code: 53965

Airport Operations

Airport use: Private use. Permission required prior to landing
Activation date: 07/1982
Control tower: no
ARTCC: CHICAGO CENTER
FSS: GREEN BAY FLIGHT SERVICE STATION
Attendance: UNATNDD
Wind indicator: yes
Segmented circle: no

Airport Communications

WX AWOS-3 at DLL (13 nm S): 118.325 (608-356-1071)
WX AWOS-3PT at C35 (17 nm SW): 118.95 (608-768-0023)
WX AWOS-3 at 82C (19 nm W): 123.925 (608-562-6153)

Nearby radio navigation aids

VOR radial/distance  VOR name  Freq  Var
DLLr007/11.7DELLS VORTAC117.0003E
MSNr332/39.4MADISON VORTAC108.6003E

Airport Services

Runway Information

Runway N/S

Dimensions: 2020 x 50 ft. / 616 x 15 m
Surface: turf
RUNWAY N  RUNWAY S
Traffic pattern: leftleft
Obstructions: 35 ft. trees, 10 ft. from runwaynone

Airport Ownership and Management from official FAA records

Ownership: Privately-owned
Owner: GEORGE SNAMISKE
3109 WINDSOR DR.
RACINE, WI 53404
Phone 414-828-9081
Manager: GEORGE SNAMISKE
3109 WINDSOR DR.
RACINE, WI 53404
Phone 414-828-9081

Additional Remarks

FOR CD CTC CHICAGO ARTCC AT 630-906-8921.

Instrument Procedures

There are no published instrument procedures at WS02.

Some nearby airports with instrument procedures:

KDLL - Baraboo/Wisconsin Dells Regional Airport (13 nm S)
63C - Adams County Airport-Legion Field (13 nm N)
C47 - Portage Municipal Airport (15 nm SE)
C35 - Reedsburg Municipal Airport (17 nm SW)
82C - Mauston/New Lisbon Union Airport (19 nm W)
 
Loc | Ops | Rwys | IFR | FBO | Links
Com | Nav | Svcs | Stats | Notes
Area around WS02 (Polish Paradise Airport)
 
Road maps at: MapQuest Bing Google
 
Aerial photo
No photo
 
Sectional chart

 
Airport distance calculator
Flying to Polish Paradise Airport? Find the distance to fly.

From to WS02

Sunrise and sunset
Times for 27-Jan-2023
 Local
(UTC-6)
 Zulu
(UTC)
Morning civil twilight06:5112:51
Sunrise07:2213:22
Sunset17:0223:02
Evening civil twilight17:3323:33

Current date and time
Zulu (UTC)  27-Jan-2023 11:56:03
Local (UTC-6)  27-Jan-2023 05:56:03
 
METAR
KDLL 
13nm S 
271135Z AUTO 18014G20KT 10SM BKN047 OVC065 M07/M10 A2966 RMK AO2 T10751097
KC35 
17nm SW 
271135Z AUTO 16012G17KT 7SM SCT028 BKN038 OVC060 M08/M11 A2964 RMK AO2 T10811114 PWINO
K82C 
19nm W 
271135Z AUTO 17012G20KT 5SM -SN BKN037 BKN045 OVC060 M07/M09 A2960 RMK AO2 T10681095
KY50 
25nm NE 
271056Z AUTO 16007KT 10SM OVC110 M11/M12 A2969 RMK AO2 SLP066 T11111122 FZRANO $
KVOK 
26nm NW 
271139Z AUTO 18010KT 5SM BLSN FEW022 M08/M10 A2957 RMK AO2 SNB03E22SNB36E39 SLP033
TAF
KVOK 
26nm NW 
261800Z 2618/2723 32012KT 9000 -SN BKN015 OVC030 620153 QNH2985INS BECMG 2620/2621 VRB06KT 9999 NSW BKN008 OVC015 620083 QNH2997INS BECMG 2709/2710 17009KT 9999 BKN015 OVC040 620153 510053 QNH2961INS BECMG 2717/2718 21012G18KT 9999 BKN025 620253 510053 QNH2953INS TX06/2620Z TNM18/2704Z LAST NO AMDS AFT 2623 NEXT 2709
NOTAMs
Click for the latest NOTAMs
NOTAMs are issued by the DoD/FAA and will open in a separate window not controlled by AirNav.

 

 
 

Would you like to see your business listed on this page?

 If your business provides an interesting product or service to pilots, flight crews, aircraft, or users of the Polish Paradise Airport, you should consider listing it here.  To start the listing process, click on the button below
 
Add a business
 

Other Pages about Polish Paradise Airport

Update a link
 
Copyright © AirNav, LLC. All rights reserved. Privacy Policy  Contact